createdAt,value
2019-03-21T00:00:54.294Z,4.96
2019-03-21T00:01:54.345Z,4.65
2019-03-21T00:02:54.397Z,4.64
2019-03-21T00:03:54.448Z,4.62
2019-03-21T00:04:54.505Z,4.64
2019-03-21T00:05:54.556Z,4.67
2019-03-21T00:06:54.602Z,4.69
2019-03-21T00:07:54.654Z,4.69
2019-03-21T00:08:54.706Z,4.71
2019-03-21T00:09:54.757Z,4.71
2019-03-21T00:10:54.810Z,4.72
2019-03-21T00:11:54.861Z,4.69
2019-03-21T00:12:54.914Z,4.75
2019-03-21T00:13:54.965Z,4.64
2019-03-21T00:14:55.017Z,4.59
2019-03-21T00:15:55.069Z,4.64
2019-03-21T00:16:55.120Z,4.77
2019-03-21T00:17:55.173Z,4.65
2019-03-21T00:18:55.226Z,4.79
2019-03-21T00:19:55.275Z,4.74
2019-03-21T00:20:55.328Z,4.67
2019-03-21T00:21:55.379Z,4.64
2019-03-21T00:22:55.434Z,4.50
2019-03-21T00:23:55.482Z,4.61
2019-03-21T00:24:55.534Z,4.57
2019-03-21T00:25:55.588Z,4.57
2019-03-21T00:26:55.637Z,4.44
2019-03-21T00:27:55.690Z,4.47
2019-03-21T00:28:55.740Z,4.51
2019-03-21T00:29:55.791Z,4.54
2019-03-21T00:30:55.844Z,4.54
2019-03-21T00:31:55.895Z,4.53
2019-03-21T00:32:55.947Z,4.44
2019-03-21T00:33:55.997Z,4.38
2019-03-21T00:34:56.050Z,4.25
2019-03-21T00:35:56.104Z,4.26
2019-03-21T00:36:56.151Z,4.17
2019-03-21T00:37:56.204Z,4.11
2019-03-21T00:38:56.257Z,4.18
2019-03-21T00:39:56.308Z,4.32
2019-03-21T00:40:56.359Z,4.31
2019-03-21T00:41:56.411Z,4.43
2019-03-21T00:42:56.462Z,4.39
2019-03-21T00:43:56.514Z,4.32
2019-03-21T00:44:56.570Z,4.38
2019-03-21T00:45:56.616Z,4.31
2019-03-21T00:46:56.667Z,4.29
2019-03-21T00:47:56.721Z,4.21
2019-03-21T00:48:56.770Z,4.24
2019-03-21T00:49:56.824Z,4.14
2019-03-21T00:50:56.874Z,4.07
2019-03-21T00:51:56.925Z,4.00
2019-03-21T00:52:56.975Z,3.95
2019-03-21T00:53:57.029Z,3.99
2019-03-21T00:54:57.079Z,4.07
2019-03-21T00:55:57.130Z,4.02
2019-03-21T00:56:57.185Z,3.99
2019-03-21T00:57:58.636Z,3.96
2019-03-21T00:58:57.287Z,3.98
2019-03-21T00:59:57.335Z,3.95
2019-03-21T01:00:57.388Z,3.89
2019-03-21T01:01:57.440Z,3.93
2019-03-21T01:02:57.490Z,3.90
2019-03-21T01:03:57.542Z,3.78
2019-03-21T01:04:57.593Z,3.84
2019-03-21T01:05:57.645Z,3.75
2019-03-21T01:06:57.697Z,3.81
2019-03-21T01:07:57.748Z,3.78
2019-03-21T01:08:57.799Z,3.71
2019-03-21T01:09:57.850Z,3.82
2019-03-21T01:10:57.913Z,3.88
2019-03-21T01:11:57.954Z,3.71
2019-03-21T01:12:58.005Z,3.80
2019-03-21T01:13:58.060Z,3.67
2019-03-21T01:14:58.109Z,3.81
2019-03-21T01:15:58.157Z,3.71
2019-03-21T01:16:58.211Z,3.70
2019-03-21T01:17:58.262Z,3.72
2019-03-21T01:18:58.316Z,3.70
2019-03-21T01:19:58.371Z,3.67
2019-03-21T01:20:58.420Z,3.62
2019-03-21T01:21:58.469Z,3.60
2019-03-21T01:22:58.519Z,3.62
2019-03-21T01:23:58.570Z,3.63
2019-03-21T01:24:58.635Z,3.59
2019-03-21T01:25:58.674Z,3.57
2019-03-21T01:26:58.726Z,3.54
2019-03-21T01:27:58.776Z,3.54
2019-03-21T01:28:58.828Z,3.60
2019-03-21T01:29:58.892Z,3.70
2019-03-21T01:30:58.931Z,3.68
2019-03-21T01:31:58.981Z,3.72
2019-03-21T01:32:59.675Z,3.67
2019-03-21T01:33:59.084Z,3.62
2019-03-21T01:34:59.135Z,3.62
2019-03-21T01:35:59.186Z,3.59
2019-03-21T01:36:59.238Z,3.64
2019-03-21T01:37:59.289Z,3.62
2019-03-21T01:38:59.340Z,3.57
2019-03-21T01:39:59.392Z,3.67
2019-03-21T01:40:59.447Z,3.68
2019-03-21T01:41:59.496Z,3.75
2019-03-21T01:42:59.550Z,3.70
2019-03-21T01:43:59.595Z,3.71
2019-03-21T01:44:59.649Z,3.54
2019-03-21T01:45:59.699Z,3.57
2019-03-21T01:46:59.750Z,3.54
2019-03-21T01:47:59.801Z,3.45
2019-03-21T01:48:59.853Z,3.49
2019-03-21T01:49:59.905Z,3.46
2019-03-21T01:50:59.957Z,3.42
2019-03-21T01:52:00.006Z,3.42
2019-03-21T01:53:00.059Z,3.39
2019-03-21T01:54:00.109Z,3.46
2019-03-21T01:55:00.338Z,3.45
2019-03-21T01:56:00.210Z,3.41
2019-03-21T01:57:00.263Z,3.46
2019-03-21T01:58:00.315Z,3.41
2019-03-21T01:59:00.365Z,3.34
2019-03-21T02:00:00.465Z,3.44
2019-03-21T02:01:00.466Z,3.30
2019-03-21T02:02:00.518Z,3.28
2019-03-21T02:03:00.576Z,3.34
2019-03-21T02:04:00.619Z,3.26
2019-03-21T02:05:00.673Z,3.30
2019-03-21T02:06:00.722Z,3.26
2019-03-21T02:07:00.778Z,3.33
2019-03-21T02:08:00.824Z,3.31
2019-03-21T02:09:00.876Z,3.28
2019-03-21T02:10:00.932Z,3.33
2019-03-21T02:11:00.979Z,3.33
2019-03-21T02:12:01.030Z,3.42
2019-03-21T02:13:01.079Z,3.37
2019-03-21T02:14:01.132Z,3.33
2019-03-21T02:15:01.182Z,3.26
2019-03-21T02:16:01.236Z,3.25
2019-03-21T02:17:01.284Z,3.17
2019-03-21T02:18:01.335Z,3.17
2019-03-21T02:19:01.387Z,3.25
2019-03-21T02:20:01.438Z,3.28
2019-03-21T02:21:01.487Z,3.23
2019-03-21T02:22:01.539Z,3.30
2019-03-21T02:23:01.645Z,3.22
2019-03-21T02:24:01.640Z,3.20
2019-03-21T02:25:01.692Z,3.25
2019-03-21T02:26:01.745Z,3.20
2019-03-21T02:27:01.795Z,3.17
2019-03-21T02:28:01.846Z,3.12
2019-03-21T02:29:01.896Z,3.15
2019-03-21T02:30:01.953Z,3.12
2019-03-21T02:31:02.119Z,3.23
2019-03-21T02:32:02.050Z,3.33
2019-03-21T02:33:02.105Z,3.26
2019-03-21T02:34:02.151Z,3.16
2019-03-21T02:35:02.205Z,3.25
2019-03-21T02:36:02.256Z,3.17
2019-03-21T02:37:02.321Z,3.15
2019-03-21T02:38:02.355Z,3.16
2019-03-21T02:39:02.408Z,2.99
2019-03-21T02:40:02.460Z,2.97
2019-03-21T02:41:02.509Z,3.05
2019-03-21T02:42:02.558Z,3.05
2019-03-21T02:43:02.607Z,3.07
2019-03-21T02:44:02.660Z,3.08
2019-03-21T02:45:08.976Z,3.01
2019-03-21T02:46:02.766Z,2.99
2019-03-21T02:47:02.811Z,3.02
2019-03-21T02:48:02.869Z,3.07
2019-03-21T02:49:02.918Z,3.02
2019-03-21T02:50:02.965Z,2.94
2019-03-21T02:51:03.026Z,2.92
2019-03-21T02:52:03.074Z,2.87
2019-03-21T02:53:03.122Z,2.92
2019-03-21T02:54:03.170Z,2.97
2019-03-21T02:55:03.230Z,2.92
2019-03-21T02:56:03.289Z,2.87
2019-03-21T02:57:03.325Z,2.84
2019-03-21T02:58:03.380Z,2.83
2019-03-21T02:59:03.425Z,2.89
2019-03-21T03:00:03.474Z,2.90
2019-03-21T03:01:03.526Z,2.84
2019-03-21T03:02:03.646Z,2.86
2019-03-21T03:03:03.636Z,2.90
2019-03-21T03:04:03.677Z,2.83
2019-03-21T03:05:03.726Z,2.90
2019-03-21T03:06:03.776Z,2.87
2019-03-21T03:07:03.843Z,2.83
2019-03-21T03:08:03.880Z,2.83
2019-03-21T03:09:03.931Z,2.77
2019-03-21T03:10:03.980Z,2.76
2019-03-21T03:11:04.036Z,2.71
2019-03-21T03:12:04.083Z,2.69
2019-03-21T03:13:04.132Z,2.66
2019-03-21T03:14:04.624Z,2.62
2019-03-21T03:15:04.239Z,2.73
2019-03-21T03:16:04.285Z,2.68
2019-03-21T03:17:04.342Z,2.63
2019-03-21T03:18:04.387Z,2.58
2019-03-21T03:19:04.442Z,2.65
2019-03-21T03:20:04.489Z,2.71
2019-03-21T03:21:04.539Z,2.71
2019-03-21T03:22:04.594Z,2.74
2019-03-21T03:23:04.640Z,2.65
2019-03-21T03:24:04.690Z,2.69
2019-03-21T03:25:04.744Z,2.73
2019-03-21T03:26:04.794Z,2.63
2019-03-21T03:27:04.843Z,2.68
2019-03-21T03:28:04.891Z,2.59
2019-03-21T03:29:04.943Z,2.65
2019-03-21T03:30:05.001Z,2.63
2019-03-21T03:31:05.046Z,2.65
2019-03-21T03:32:05.106Z,2.74
2019-03-21T03:33:05.146Z,2.73
2019-03-21T03:34:05.196Z,2.59
2019-03-21T03:35:05.259Z,2.61
2019-03-21T03:36:05.300Z,2.61
2019-03-21T03:37:05.350Z,2.53
2019-03-21T03:38:05.406Z,2.56
2019-03-21T03:39:05.454Z,2.56
2019-03-21T03:40:05.503Z,2.61
2019-03-21T03:41:05.551Z,2.56
2019-03-21T03:42:05.601Z,2.56
2019-03-21T03:43:05.656Z,2.48
2019-03-21T03:44:05.703Z,2.50
2019-03-21T03:45:05.756Z,2.55
2019-03-21T03:46:05.808Z,2.47
2019-03-21T03:47:05.853Z,2.51
2019-03-21T03:48:05.904Z,2.47
2019-03-21T03:49:05.955Z,2.56
2019-03-21T03:50:06.007Z,2.45
2019-03-21T03:51:06.055Z,2.44
2019-03-21T03:52:06.111Z,2.58
2019-03-21T03:53:06.168Z,2.61
2019-03-21T03:54:06.223Z,2.66
2019-03-21T03:55:06.258Z,2.63
2019-03-21T03:56:06.321Z,2.68
2019-03-21T03:57:06.358Z,2.56
2019-03-21T03:58:06.410Z,2.44
2019-03-21T03:59:06.459Z,2.58
2019-03-21T04:00:06.509Z,2.47
2019-03-21T04:01:06.560Z,2.59
2019-03-21T04:02:06.611Z,2.50
2019-03-21T04:03:06.662Z,2.58
2019-03-21T04:04:06.719Z,2.53
2019-03-21T04:05:06.761Z,2.48
2019-03-21T04:06:06.818Z,2.37
2019-03-21T04:07:06.863Z,2.41
2019-03-21T04:08:06.913Z,2.32
2019-03-21T04:09:06.964Z,2.30
2019-03-21T04:10:07.015Z,2.14
2019-03-21T04:11:07.065Z,2.25
2019-03-21T04:12:07.120Z,2.15
2019-03-21T04:13:07.167Z,2.15
2019-03-21T04:14:07.226Z,2.32
2019-03-21T04:15:07.282Z,2.38
2019-03-21T04:16:07.323Z,2.44
2019-03-21T04:17:07.371Z,2.47
2019-03-21T04:18:07.429Z,2.33
2019-03-21T04:19:07.480Z,2.36
2019-03-21T04:20:07.517Z,2.20
2019-03-21T04:21:07.566Z,2.22
2019-03-21T04:22:07.618Z,2.20
2019-03-21T04:23:07.671Z,2.18
2019-03-21T04:24:07.722Z,2.22
2019-03-21T04:25:07.768Z,2.20
2019-03-21T04:26:07.820Z,2.15
2019-03-21T04:27:07.872Z,2.20
2019-03-21T04:28:07.921Z,2.27
2019-03-21T04:29:07.975Z,2.29
2019-03-21T04:30:08.027Z,2.29
2019-03-21T04:31:08.071Z,2.27
2019-03-21T04:32:08.122Z,2.19
2019-03-21T04:33:08.170Z,2.25
2019-03-21T04:34:08.233Z,2.33
2019-03-21T04:35:08.273Z,2.18
2019-03-21T04:36:08.323Z,2.22
2019-03-21T04:37:08.375Z,2.20
2019-03-21T04:38:08.429Z,2.26
2019-03-21T04:39:08.477Z,2.23
2019-03-21T04:40:08.523Z,2.18
2019-03-21T04:41:08.581Z,2.23
2019-03-21T04:42:08.625Z,2.20
2019-03-21T04:43:08.675Z,2.15
2019-03-21T04:44:08.724Z,2.18
2019-03-21T04:45:08.775Z,2.22
2019-03-21T04:46:08.826Z,2.30
2019-03-21T04:47:08.877Z,2.40
2019-03-21T04:48:08.926Z,2.41
2019-03-21T04:49:08.986Z,2.33
2019-03-21T04:50:09.029Z,2.36
2019-03-21T04:51:09.307Z,2.27
2019-03-21T04:52:09.132Z,2.22
2019-03-21T04:53:09.178Z,2.23
2019-03-21T04:54:09.228Z,2.14
2019-03-21T04:55:09.279Z,2.14
2019-03-21T04:56:09.327Z,2.02
2019-03-21T04:57:09.380Z,2.02
2019-03-21T04:58:09.429Z,2.04
2019-03-21T04:59:09.489Z,1.98
2019-03-21T05:00:09.529Z,1.89
2019-03-21T05:01:09.601Z,1.89
2019-03-21T05:02:09.630Z,1.92
2019-03-21T05:03:09.681Z,1.98
2019-03-21T05:04:09.733Z,1.86
2019-03-21T05:05:09.779Z,1.89
2019-03-21T05:06:09.830Z,1.89
2019-03-21T05:07:09.882Z,1.89
2019-03-21T05:08:09.930Z,1.92
2019-03-21T05:09:09.986Z,1.88
2019-03-21T05:10:10.031Z,1.89
2019-03-21T05:11:10.081Z,1.85
2019-03-21T05:12:10.132Z,1.89
2019-03-21T05:13:10.182Z,1.88
2019-03-21T05:14:10.235Z,1.95
2019-03-21T05:15:10.283Z,1.89
2019-03-21T05:16:14.749Z,2.01
2019-03-21T05:17:10.383Z,2.04
2019-03-21T05:18:10.434Z,2.04
2019-03-21T05:19:10.483Z,1.93
2019-03-21T05:20:10.533Z,1.85
2019-03-21T05:21:10.586Z,1.98
2019-03-21T05:22:10.634Z,1.90
2019-03-21T05:23:10.685Z,1.89
2019-03-21T05:24:10.734Z,2.01
2019-03-21T05:25:10.790Z,1.92
2019-03-21T05:26:10.836Z,1.86
2019-03-21T05:27:10.886Z,1.92
2019-03-21T05:28:10.935Z,1.89
2019-03-21T05:29:10.987Z,2.00
2019-03-21T05:30:11.035Z,2.02
2019-03-21T05:31:11.090Z,1.93
2019-03-21T05:32:11.135Z,2.01
2019-03-21T05:33:11.187Z,1.98
2019-03-21T05:34:11.236Z,1.85
2019-03-21T05:35:11.288Z,1.86
2019-03-21T05:36:11.392Z,2.05
2019-03-21T05:37:11.388Z,2.08
2019-03-21T05:38:11.439Z,2.18
2019-03-21T05:39:11.525Z,2.27
2019-03-21T05:40:11.543Z,2.30
2019-03-21T05:41:11.589Z,2.20
2019-03-21T05:42:11.639Z,2.20
2019-03-21T05:43:11.692Z,2.23
2019-03-21T05:44:11.803Z,2.32
2019-03-21T05:45:11.793Z,2.47
2019-03-21T05:46:11.840Z,2.63
2019-03-21T05:47:11.890Z,2.62
2019-03-21T05:48:11.942Z,2.61
2019-03-21T05:49:11.992Z,2.66
2019-03-21T05:50:12.041Z,2.74
2019-03-21T05:51:12.093Z,2.74
2019-03-21T05:52:12.175Z,2.65
2019-03-21T05:53:12.193Z,2.69
2019-03-21T05:54:12.243Z,2.74
2019-03-21T05:55:12.298Z,2.69
2019-03-21T05:56:12.343Z,2.66
2019-03-21T05:57:12.399Z,2.73
2019-03-21T05:58:12.530Z,2.63
2019-03-21T05:59:12.497Z,2.74
2019-03-21T06:00:12.546Z,2.71
2019-03-21T06:01:12.603Z,2.71
2019-03-21T06:02:12.650Z,2.76
2019-03-21T06:03:12.698Z,2.68
2019-03-21T06:04:12.749Z,2.71
2019-03-21T06:05:12.798Z,2.66
2019-03-21T06:06:12.852Z,2.74
2019-03-21T06:07:12.901Z,2.77
2019-03-21T06:08:12.949Z,2.73
2019-03-21T06:09:13.000Z,2.76
2019-03-21T06:10:13.052Z,2.83
2019-03-21T06:11:13.103Z,2.73
2019-03-21T06:12:13.152Z,2.76
2019-03-21T06:13:13.203Z,2.62
2019-03-21T06:14:13.255Z,2.56
2019-03-21T06:15:13.306Z,2.56
2019-03-21T06:16:13.363Z,2.65
2019-03-21T06:17:13.408Z,2.68
2019-03-21T06:18:13.457Z,2.55
2019-03-21T06:19:13.509Z,2.61
2019-03-21T06:20:13.561Z,2.68
2019-03-21T06:21:13.611Z,2.73
2019-03-21T06:22:13.671Z,2.66
2019-03-21T06:23:13.713Z,2.83
2019-03-21T06:24:13.763Z,2.86
2019-03-21T06:25:15.878Z,2.94
2019-03-21T06:26:13.867Z,2.87
2019-03-21T06:27:14.969Z,3.04
2019-03-21T06:28:14.591Z,3.04
2019-03-21T06:29:14.018Z,3.05
2019-03-21T06:30:14.070Z,2.94
2019-03-21T06:31:14.120Z,2.99
2019-03-21T06:32:14.169Z,2.99
2019-03-21T06:33:14.222Z,2.95
2019-03-21T06:34:14.277Z,2.99
2019-03-21T06:35:14.325Z,3.05
2019-03-21T06:36:14.385Z,3.08
2019-03-21T06:37:14.427Z,2.99
2019-03-21T06:38:14.477Z,3.07
2019-03-21T06:39:14.529Z,3.08
2019-03-21T06:40:14.578Z,3.13
2019-03-21T06:41:14.631Z,3.19
2019-03-21T06:42:14.683Z,3.10
2019-03-21T06:43:14.734Z,3.22
2019-03-21T06:44:14.786Z,3.19
2019-03-21T06:45:14.837Z,3.26
2019-03-21T06:46:14.887Z,3.23
2019-03-21T06:47:14.939Z,3.23
2019-03-21T06:48:14.994Z,3.26
2019-03-21T06:49:15.043Z,3.42
2019-03-21T06:50:15.094Z,3.45
2019-03-21T06:51:15.146Z,3.50
2019-03-21T06:52:15.198Z,3.35
2019-03-21T06:53:15.252Z,3.33
2019-03-21T06:54:15.300Z,3.42
2019-03-21T06:55:15.353Z,3.46
2019-03-21T06:56:15.407Z,3.46
2019-03-21T06:57:15.455Z,3.46
2019-03-21T06:58:15.509Z,3.56
2019-03-21T06:59:15.560Z,3.59
2019-03-21T07:00:15.711Z,3.59
2019-03-21T07:01:15.669Z,3.53
2019-03-21T07:02:15.716Z,3.63
2019-03-21T07:03:16.509Z,3.60
2019-03-21T07:04:15.819Z,3.59
2019-03-21T07:05:15.871Z,3.45
2019-03-21T07:06:15.925Z,3.35
2019-03-21T07:07:15.975Z,3.31
2019-03-21T07:08:16.026Z,3.42
2019-03-21T07:09:16.083Z,3.31
2019-03-21T07:10:16.133Z,3.34
2019-03-21T07:11:16.186Z,3.46
2019-03-21T07:12:16.238Z,3.53
2019-03-21T07:13:16.288Z,3.59
2019-03-21T07:14:16.339Z,3.71
2019-03-21T07:15:16.393Z,3.70
2019-03-21T07:16:16.444Z,3.71
2019-03-21T07:17:16.496Z,3.68
2019-03-21T07:18:16.551Z,3.74
2019-03-21T07:19:16.600Z,3.72
2019-03-21T07:20:16.654Z,3.71
2019-03-21T07:21:16.705Z,3.70
2019-03-21T07:22:16.757Z,3.84
2019-03-21T07:23:16.811Z,3.78
2019-03-21T07:24:16.862Z,3.71
2019-03-21T07:25:16.913Z,3.82
2019-03-21T07:26:16.966Z,3.75
2019-03-21T07:27:17.019Z,3.78
2019-03-21T07:28:17.071Z,3.93
2019-03-21T07:29:17.123Z,3.90
2019-03-21T07:30:17.176Z,3.93
2019-03-21T07:31:17.228Z,3.92
2019-03-21T07:32:17.280Z,3.90
2019-03-21T07:33:17.335Z,3.82
2019-03-21T07:34:17.385Z,3.86
2019-03-21T07:35:17.437Z,3.98
2019-03-21T07:36:17.488Z,4.02
2019-03-21T07:37:17.542Z,3.93
2019-03-21T07:38:17.594Z,3.95
2019-03-21T07:39:17.649Z,4.13
2019-03-21T07:40:17.697Z,4.00
2019-03-21T07:41:17.751Z,4.14
2019-03-21T07:42:17.824Z,4.14
2019-03-21T07:43:17.857Z,4.17
2019-03-21T07:44:17.908Z,4.31
2019-03-21T07:45:17.960Z,4.36
2019-03-21T07:46:18.016Z,4.39
2019-03-21T07:47:18.064Z,4.43
2019-03-21T07:48:18.492Z,4.53
2019-03-21T07:49:18.169Z,4.54
2019-03-21T07:50:18.225Z,4.67
2019-03-21T07:52:18.325Z,4.74
2019-03-21T07:53:18.378Z,4.71
2019-03-21T07:54:18.432Z,4.84
2019-03-21T07:55:18.484Z,4.86
2019-03-21T07:56:18.538Z,4.91
2019-03-21T07:57:18.589Z,4.90
2019-03-21T07:58:18.639Z,4.87
2019-03-21T07:59:18.696Z,4.94
2019-03-21T08:00:18.748Z,5.02
2019-03-21T08:01:18.798Z,4.99
2019-03-21T08:02:18.850Z,4.99
2019-03-21T08:03:18.903Z,5.12
2019-03-21T08:04:18.955Z,5.19
2019-03-21T08:05:19.008Z,5.17
2019-03-21T08:06:19.062Z,5.14
2019-03-21T08:07:19.117Z,5.19
2019-03-21T08:08:19.166Z,5.26
2019-03-21T08:09:19.220Z,5.19
2019-03-21T08:10:19.273Z,5.22
2019-03-21T08:11:19.332Z,5.23
2019-03-21T08:12:19.386Z,5.35
2019-03-21T08:13:19.431Z,5.40
2019-03-21T08:14:19.485Z,5.55
2019-03-21T08:15:19.535Z,5.44
2019-03-21T08:16:19.587Z,5.62
2019-03-21T08:17:19.658Z,5.74
2019-03-21T08:18:19.693Z,5.74
2019-03-21T08:19:19.748Z,5.75
2019-03-21T08:20:20.765Z,5.80
2019-03-21T08:21:20.430Z,5.90
2019-03-21T08:22:19.905Z,6.03
2019-03-21T08:23:19.959Z,6.25
2019-03-21T08:24:20.010Z,6.36
2019-03-21T08:25:20.064Z,6.42
2019-03-21T08:26:20.117Z,6.30
2019-03-21T08:27:20.171Z,6.38
2019-03-21T08:28:20.223Z,6.48
2019-03-21T08:29:20.280Z,6.39
2019-03-21T08:30:20.332Z,6.42
2019-03-21T08:31:20.383Z,6.35
2019-03-21T08:32:20.436Z,6.43
2019-03-21T08:33:20.488Z,6.42
2019-03-21T08:34:20.541Z,6.57
2019-03-21T08:35:20.596Z,6.73
2019-03-21T08:36:20.651Z,6.79
2019-03-21T08:37:20.705Z,6.94
2019-03-21T08:38:20.755Z,6.90
2019-03-21T08:39:20.812Z,6.96
2019-03-21T08:40:20.861Z,7.01
2019-03-21T08:41:20.915Z,7.05
2019-03-21T08:42:20.970Z,7.19
2019-03-21T08:43:21.021Z,7.33
2019-03-21T08:44:21.147Z,7.44
2019-03-21T08:45:21.129Z,7.36
2019-03-21T08:46:21.184Z,7.51
2019-03-21T08:47:21.334Z,7.51
2019-03-21T08:48:21.292Z,7.55
2019-03-21T08:49:21.347Z,7.67
2019-03-21T08:50:21.398Z,7.66
2019-03-21T08:51:21.453Z,7.70
2019-03-21T08:52:21.505Z,7.74
2019-03-21T08:53:21.559Z,7.81
2019-03-21T08:54:21.617Z,7.79
2019-03-21T08:55:21.671Z,7.85
2019-03-21T08:56:21.721Z,7.91
2019-03-21T08:57:21.774Z,7.94
2019-03-21T08:58:21.829Z,8.00
2019-03-21T08:59:21.884Z,8.14
2019-03-21T09:00:21.937Z,8.21
2019-03-21T09:01:21.992Z,8.25
2019-03-21T09:02:22.046Z,8.29
2019-03-21T09:03:22.100Z,8.32
2019-03-21T09:04:22.156Z,8.31
2019-03-21T09:05:22.208Z,8.37
2019-03-21T09:06:22.263Z,8.47
2019-03-21T09:07:22.334Z,8.50
2019-03-21T09:08:22.372Z,8.55
2019-03-21T09:09:22.428Z,8.71
2019-03-21T09:10:22.508Z,8.70
2019-03-21T09:11:22.537Z,8.70
2019-03-21T09:12:22.592Z,8.73
2019-03-21T09:13:22.644Z,8.76
2019-03-21T09:14:22.699Z,8.80
2019-03-21T09:15:22.766Z,8.88
2019-03-21T09:16:22.808Z,8.93
2019-03-21T09:17:22.863Z,8.98
2019-03-21T09:18:22.916Z,9.15
2019-03-21T09:19:22.972Z,9.22
2019-03-21T09:20:23.029Z,9.19
2019-03-21T09:21:23.081Z,9.32
2019-03-21T09:22:23.139Z,9.35
2019-03-21T09:23:23.194Z,9.48
2019-03-21T09:24:23.246Z,9.49
2019-03-21T09:25:23.303Z,9.62
2019-03-21T09:26:23.357Z,9.59
2019-03-21T09:27:23.411Z,9.62
2019-03-21T09:28:23.469Z,9.70
2019-03-21T09:29:23.521Z,9.78
2019-03-21T09:30:23.577Z,9.86
2019-03-21T09:31:23.630Z,9.96
2019-03-21T09:32:23.727Z,10.06
2019-03-21T09:33:23.742Z,10.16
2019-03-21T09:34:23.797Z,10.26
2019-03-21T09:35:23.852Z,10.13
2019-03-21T09:36:23.907Z,10.25
2019-03-21T09:37:23.962Z,10.29
2019-03-21T09:38:24.020Z,10.49
2019-03-21T09:39:24.076Z,10.52
2019-03-21T09:40:24.128Z,10.57
2019-03-21T09:41:24.186Z,10.76
2019-03-21T09:42:24.239Z,10.80
2019-03-21T09:43:24.295Z,10.88
2019-03-21T09:44:24.351Z,10.93
2019-03-21T09:45:24.407Z,11.01
2019-03-21T09:46:24.462Z,11.05
2019-03-21T09:47:24.517Z,11.13
2019-03-21T09:48:24.573Z,11.12
2019-03-21T09:49:24.628Z,11.11
2019-03-21T09:50:24.685Z,11.17
2019-03-21T09:51:30.849Z,11.33
2019-03-21T09:52:25.400Z,11.31
2019-03-21T09:53:24.851Z,11.39
2019-03-21T09:54:24.910Z,11.46
2019-03-21T09:55:24.965Z,11.45
2019-03-21T09:56:25.021Z,11.54
2019-03-21T09:57:25.076Z,11.72
2019-03-21T09:58:25.134Z,11.90
2019-03-21T09:59:25.190Z,12.05
2019-03-21T10:00:25.244Z,12.00
2019-03-21T10:01:25.300Z,12.12
2019-03-21T10:02:25.358Z,12.33
2019-03-21T10:03:25.413Z,12.23
2019-03-21T10:04:25.469Z,12.31
2019-03-21T10:05:25.525Z,12.30
2019-03-21T10:06:25.581Z,12.43
2019-03-21T10:07:25.641Z,12.48
2019-03-21T10:08:28.801Z,12.58
2019-03-21T10:09:25.749Z,12.61
2019-03-21T10:10:25.811Z,12.73
2019-03-21T10:11:25.865Z,12.73
2019-03-21T10:12:25.921Z,12.80
2019-03-21T10:13:25.978Z,12.89
2019-03-21T10:14:26.038Z,12.94
2019-03-21T10:15:26.833Z,13.01
2019-03-21T10:16:26.147Z,13.24
2019-03-21T10:17:26.202Z,13.28
2019-03-21T10:18:26.261Z,13.43
2019-03-21T10:19:26.319Z,13.44
2019-03-21T10:20:26.373Z,13.50
2019-03-21T10:21:26.429Z,13.65
2019-03-21T10:22:26.486Z,13.63
2019-03-21T10:23:26.545Z,13.84
2019-03-21T10:24:26.599Z,13.88
2019-03-21T10:25:27.019Z,13.91
2019-03-21T10:26:26.714Z,13.99
2019-03-21T10:27:26.770Z,13.87
2019-03-21T10:28:26.828Z,13.93
2019-03-21T10:29:26.885Z,14.02
2019-03-21T10:30:26.942Z,14.21
2019-03-21T10:31:27.000Z,14.23
2019-03-21T10:32:27.063Z,14.20
2019-03-21T10:33:27.114Z,14.26
2019-03-21T10:34:27.175Z,14.49
2019-03-21T10:35:27.228Z,14.49
2019-03-21T10:36:27.287Z,14.54
2019-03-21T10:37:27.342Z,14.60
2019-03-21T10:38:27.400Z,14.60
2019-03-21T10:39:27.459Z,14.64
2019-03-21T10:40:27.513Z,14.57
2019-03-21T10:41:27.573Z,14.82
2019-03-21T10:42:27.630Z,14.75
2019-03-21T10:44:10.125Z,14.66
2019-03-21T10:45:10.183Z,14.60
2019-03-21T10:46:10.239Z,14.87
2019-03-21T10:47:12.921Z,14.82
2019-03-21T10:48:10.355Z,15.01
2019-03-21T10:49:10.415Z,14.95
2019-03-21T10:50:10.471Z,14.85
2019-03-21T10:51:10.528Z,14.98
2019-03-21T10:52:10.589Z,15.12
2019-03-21T10:53:10.643Z,15.27
2019-03-21T10:54:10.701Z,15.30
2019-03-21T10:55:10.759Z,15.34
2019-03-21T10:56:10.822Z,15.41
2019-03-21T10:57:10.880Z,15.49
2019-03-21T10:58:10.937Z,15.27
2019-03-21T10:59:10.990Z,15.34
2019-03-21T11:00:11.048Z,15.09
2019-03-21T11:01:11.108Z,15.04
2019-03-21T11:02:11.165Z,15.20
2019-03-21T11:03:11.225Z,15.31
2019-03-21T11:04:11.283Z,15.35
2019-03-21T11:05:11.340Z,15.40
2019-03-21T11:06:11.400Z,15.49
2019-03-21T11:07:11.458Z,15.53
2019-03-21T11:08:11.515Z,15.67
2019-03-21T11:09:11.577Z,15.91
2019-03-21T11:10:11.635Z,16.44
2019-03-21T11:11:11.696Z,16.85
2019-03-21T11:13:11.826Z,17.58
2019-03-21T11:14:11.876Z,17.95
2019-03-21T11:15:11.951Z,18.32
2019-03-21T11:16:11.998Z,19.38
2019-03-21T11:17:12.061Z,19.35
2019-03-21T11:18:12.122Z,19.68
2019-03-21T11:19:12.185Z,18.78
2019-03-21T11:20:12.243Z,19.16
2019-03-21T11:21:12.309Z,19.70
2019-03-21T11:22:12.368Z,19.89
2019-03-21T11:23:12.438Z,19.32
2019-03-21T11:24:12.512Z,19.92
2019-03-21T11:25:12.555Z,20.10
2019-03-21T11:26:12.618Z,20.16
2019-03-21T11:27:12.680Z,20.40
2019-03-21T11:28:12.742Z,20.57
2019-03-21T11:29:12.806Z,20.85
2019-03-21T11:30:16.247Z,19.80
2019-03-21T11:31:12.963Z,19.55
2019-03-21T11:32:13.496Z,19.16
2019-03-21T11:33:13.085Z,18.28
2019-03-21T11:34:13.122Z,18.34
2019-03-21T11:35:14.054Z,18.64
2019-03-21T11:36:13.817Z,18.29
2019-03-21T11:37:13.316Z,18.53
2019-03-21T11:38:13.382Z,19.07
2019-03-21T11:39:13.442Z,19.32
2019-03-21T11:40:13.510Z,19.72
2019-03-21T11:41:13.570Z,19.45
2019-03-21T11:42:13.640Z,19.35
2019-03-21T11:43:13.702Z,19.68
2019-03-21T11:44:14.365Z,19.94
2019-03-21T11:45:15.114Z,20.19
2019-03-21T11:46:13.894Z,20.04
2019-03-21T11:47:13.965Z,19.68
2019-03-21T11:48:14.032Z,19.71
2019-03-21T11:49:14.093Z,20.66
2019-03-21T11:50:14.152Z,20.33
2019-03-21T11:51:14.215Z,19.86
2019-03-21T11:52:18.546Z,19.82
2019-03-21T11:53:14.345Z,19.67
2019-03-21T11:54:14.407Z,20.26
2019-03-21T11:55:14.486Z,20.63
2019-03-21T11:56:14.538Z,20.93
2019-03-21T11:57:14.602Z,21.26
2019-03-21T11:58:14.669Z,21.26
2019-03-21T11:59:14.732Z,20.97
2019-03-21T12:00:14.796Z,20.51
2019-03-21T12:01:14.861Z,20.19
2019-03-21T12:02:26.250Z,20.83
2019-03-21T12:03:14.991Z,20.97
2019-03-21T12:04:15.055Z,20.58
2019-03-21T12:05:15.120Z,20.23
2019-03-21T12:06:15.188Z,20.64
2019-03-21T12:07:16.072Z,21.31
2019-03-21T12:08:15.378Z,20.94
2019-03-21T12:09:15.381Z,20.34
2019-03-21T12:10:15.443Z,20.34
2019-03-21T12:11:15.509Z,21.08
2019-03-21T12:12:15.574Z,21.51
2019-03-21T12:13:15.640Z,19.95
2019-03-21T12:14:15.703Z,19.45
2019-03-21T12:15:15.771Z,20.07
2019-03-21T12:16:15.842Z,20.97
2019-03-21T12:17:16.398Z,20.78
2019-03-21T12:18:15.963Z,20.19
2019-03-21T12:19:16.028Z,19.42
2019-03-21T12:20:16.092Z,19.09
2019-03-21T12:21:16.157Z,19.25
2019-03-21T12:22:16.222Z,20.01
2019-03-21T12:23:16.841Z,20.16
2019-03-21T12:24:16.394Z,20.98
2019-03-21T12:25:16.416Z,20.85
2019-03-21T12:26:16.489Z,21.13
2019-03-21T12:27:16.545Z,21.06
2019-03-21T12:28:16.610Z,21.73
2019-03-21T12:29:16.674Z,21.43
2019-03-21T12:30:16.740Z,20.98
2019-03-21T12:31:16.805Z,21.24
2019-03-21T12:32:16.868Z,20.75
2019-03-21T12:33:16.933Z,20.51
2019-03-21T12:34:17.001Z,21.64
2019-03-21T12:35:17.064Z,22.08
2019-03-21T12:36:17.128Z,21.73
2019-03-21T12:37:17.192Z,20.69
2019-03-21T12:38:17.257Z,20.31
2019-03-21T12:39:17.323Z,20.38
2019-03-21T12:40:17.391Z,21.16
2019-03-21T12:41:17.454Z,21.94
2019-03-21T12:42:17.520Z,22.04
2019-03-21T12:43:17.582Z,21.83
2019-03-21T12:44:17.651Z,21.45
2019-03-21T12:45:17.712Z,20.50
2019-03-21T12:46:17.777Z,19.68
2019-03-21T12:47:17.842Z,19.35
2019-03-21T12:48:17.908Z,19.68
2019-03-21T12:49:17.973Z,19.90
2019-03-21T12:50:18.037Z,20.15
2019-03-21T12:51:18.103Z,20.54
2019-03-21T12:52:18.167Z,20.56
2019-03-21T12:53:18.232Z,20.57
2019-03-21T12:54:18.296Z,20.61
2019-03-21T12:55:18.363Z,20.38
2019-03-21T12:56:18.426Z,20.48
2019-03-21T12:57:18.492Z,20.54
2019-03-21T12:58:18.576Z,20.60
2019-03-21T12:59:18.624Z,20.96
2019-03-21T13:00:18.685Z,20.38
2019-03-21T13:01:18.752Z,20.17
2019-03-21T13:02:18.815Z,20.38
2019-03-21T13:03:18.886Z,20.44
2019-03-21T13:04:18.945Z,20.94
2019-03-21T13:05:19.009Z,20.69
2019-03-21T13:06:19.076Z,20.19
2019-03-21T13:07:19.463Z,20.90
2019-03-21T13:08:19.206Z,20.27
2019-03-21T13:09:19.268Z,21.38
2019-03-21T13:10:19.361Z,21.79
2019-03-21T13:11:19.399Z,20.97
2019-03-21T13:12:19.470Z,20.75
2019-03-21T13:13:20.135Z,20.58
2019-03-21T13:14:19.592Z,20.22
2019-03-21T13:15:29.415Z,20.68